Terminal Aerodrome Forecast
Issued by NWS Shreveport, LA

Home | Current Version | Previous Version | Text Only | Print | Product List | Glossary On
Versions: 1 2 3 4 5 6 7 8 9 10 11 12 13 14 15 16 17 18
491
FTUS44 KSHV 171741
TAFELD
TAF
KELD 171741Z 1718/1818 21006KT P6SM SCT030 BKN100
     FM180100 VRB04KT P6SM SCT080
      TEMPO 1810/1814 3SM BR
     FM181400 26006KT P6SM SCT035 BKN100=

USA.gov is the U.S. government's official web portal to all federal, state and local government web resources and services.